sensor_id;sensor_type;location;lat;lon;timestamp;P1;durP1;ratioP1;P2;durP2;ratioP2
11614;SDS011;5863;52.832;4.758;2023-03-03T00:01:35;4.57;;;1.00;;
11614;SDS011;5863;52.832;4.758;2023-03-03T00:04:01;3.93;;;1.33;;
11614;SDS011;5863;52.832;4.758;2023-03-03T00:06:28;3.47;;;1.00;;
11614;SDS011;5863;52.832;4.758;2023-03-03T00:08:55;5.67;;;1.23;;
11614;SDS011;5863;52.832;4.758;2023-03-03T00:11:22;3.03;;;1.40;;
11614;SDS011;5863;52.832;4.758;2023-03-03T00:13:49;2.33;;;1.50;;
11614;SDS011;5863;52.832;4.758;2023-03-03T00:16:21;4.57;;;1.23;;
11614;SDS011;5863;52.832;4.758;2023-03-03T00:18:51;3.90;;;1.13;;
11614;SDS011;5863;52.832;4.758;2023-03-03T00:21:22;1.70;;;1.00;;
11614;SDS011;5863;52.832;4.758;2023-03-03T00:23:53;7.23;;;1.17;;
11614;SDS011;5863;52.832;4.758;2023-03-03T00:26:24;2.17;;;1.27;;
11614;SDS011;5863;52.832;4.758;2023-03-03T00:28:54;2.20;;;1.07;;
11614;SDS011;5863;52.832;4.758;2023-03-03T00:31:22;2.33;;;1.10;;
11614;SDS011;5863;52.832;4.758;2023-03-03T00:33:58;2.53;;;1.13;;
11614;SDS011;5863;52.832;4.758;2023-03-03T00:36:36;1.27;;;1.03;;
11614;SDS011;5863;52.832;4.758;2023-03-03T00:39:12;3.63;;;1.27;;
11614;SDS011;5863;52.832;4.758;2023-03-03T00:41:47;4.43;;;1.10;;
11614;SDS011;5863;52.832;4.758;2023-03-03T00:47:11;2.33;;;1.00;;
11614;SDS011;5863;52.832;4.758;2023-03-03T00:49:51;1.70;;;1.40;;
11614;SDS011;5863;52.832;4.758;2023-03-03T00:55:06;4.63;;;1.50;;
11614;SDS011;5863;52.832;4.758;2023-03-03T00:57:33;2.67;;;1.40;;
11614;SDS011;5863;52.832;4.758;2023-03-03T01:00:00;3.30;;;1.30;;
11614;SDS011;5863;52.832;4.758;2023-03-03T01:02:26;2.73;;;1.00;;
11614;SDS011;5863;52.832;4.758;2023-03-03T01:04:54;1.80;;;0.90;;
11614;SDS011;5863;52.832;4.758;2023-03-03T01:07:21;1.50;;;1.10;;
11614;SDS011;5863;52.832;4.758;2023-03-03T01:09:49;2.43;;;1.10;;
11614;SDS011;5863;52.832;4.758;2023-03-03T01:12:16;2.63;;;1.40;;
11614;SDS011;5863;52.832;4.758;2023-03-03T01:14:43;1.73;;;1.10;;
11614;SDS011;5863;52.832;4.758;2023-03-03T01:17:10;3.90;;;1.40;;
11614;SDS011;5863;52.832;4.758;2023-03-03T01:19:44;1.20;;;1.03;;
11614;SDS011;5863;52.832;4.758;2023-03-03T01:22:12;1.37;;;1.00;;
11614;SDS011;5863;52.832;4.758;2023-03-03T01:24:39;2.40;;;1.00;;
11614;SDS011;5863;52.832;4.758;2023-03-03T01:27:06;1.37;;;0.83;;
11614;SDS011;5863;52.832;4.758;2023-03-03T01:29:40;3.53;;;1.10;;
11614;SDS011;5863;52.832;4.758;2023-03-03T01:32:07;4.00;;;1.10;;
11614;SDS011;5863;52.832;4.758;2023-03-03T01:34:34;3.23;;;0.93;;
11614;SDS011;5863;52.832;4.758;2023-03-03T01:37:00;5.03;;;1.00;;
11614;SDS011;5863;52.832;4.758;2023-03-03T01:39:28;5.60;;;1.10;;
11614;SDS011;5863;52.832;4.758;2023-03-03T01:41:55;4.93;;;1.10;;
11614;SDS011;5863;52.832;4.758;2023-03-03T01:44:22;1.80;;;1.07;;
11614;SDS011;5863;52.832;4.758;2023-03-03T01:46:50;3.83;;;1.10;;
11614;SDS011;5863;52.832;4.758;2023-03-03T01:49:20;2.13;;;0.90;;
11614;SDS011;5863;52.832;4.758;2023-03-03T01:51:54;2.43;;;0.87;;
11614;SDS011;5863;52.832;4.758;2023-03-03T01:54:26;1.43;;;0.93;;
11614;SDS011;5863;52.832;4.758;2023-03-03T01:57:00;1.63;;;0.80;;
11614;SDS011;5863;52.832;4.758;2023-03-03T01:59:32;2.00;;;0.80;;
11614;SDS011;5863;52.832;4.758;2023-03-03T02:02:02;4.07;;;0.97;;
11614;SDS011;5863;52.832;4.758;2023-03-03T02:04:29;4.33;;;0.73;;
11614;SDS011;5863;52.832;4.758;2023-03-03T02:06:57;1.53;;;0.87;;
11614;SDS011;5863;52.832;4.758;2023-03-03T02:09:26;2.50;;;1.10;;
11614;SDS011;5863;52.832;4.758;2023-03-03T02:12:02;2.97;;;0.97;;
11614;SDS011;5863;52.832;4.758;2023-03-03T02:14:32;1.90;;;0.70;;
11614;SDS011;5863;52.832;4.758;2023-03-03T02:16:59;2.43;;;1.03;;
11614;SDS011;5863;52.832;4.758;2023-03-03T02:19:29;3.33;;;1.47;;
11614;SDS011;5863;52.832;4.758;2023-03-03T02:22:01;4.03;;;1.70;;
11614;SDS011;5863;52.832;4.758;2023-03-03T02:24:29;4.47;;;1.83;;
11614;SDS011;5863;52.832;4.758;2023-03-03T02:27:08;3.67;;;1.93;;
11614;SDS011;5863;52.832;4.758;2023-03-03T02:29:34;4.67;;;2.00;;
11614;SDS011;5863;52.832;4.758;2023-03-03T02:32:01;6.40;;;1.90;;
11614;SDS011;5863;52.832;4.758;2023-03-03T02:34:28;3.60;;;1.80;;
11614;SDS011;5863;52.832;4.758;2023-03-03T02:36:55;1.93;;;1.30;;
11614;SDS011;5863;52.832;4.758;2023-03-03T02:39:23;2.60;;;1.10;;
11614;SDS011;5863;52.832;4.758;2023-03-03T02:41:52;2.10;;;1.17;;
11614;SDS011;5863;52.832;4.758;2023-03-03T02:44:24;2.90;;;1.40;;
11614;SDS011;5863;52.832;4.758;2023-03-03T02:46:52;4.47;;;0.93;;
11614;SDS011;5863;52.832;4.758;2023-03-03T02:49:20;1.90;;;1.00;;
11614;SDS011;5863;52.832;4.758;2023-03-03T02:51:48;1.80;;;1.03;;
11614;SDS011;5863;52.832;4.758;2023-03-03T02:54:17;2.60;;;1.20;;
11614;SDS011;5863;52.832;4.758;2023-03-03T02:56:45;2.43;;;1.17;;
11614;SDS011;5863;52.832;4.758;2023-03-03T02:59:12;5.13;;;1.40;;
11614;SDS011;5863;52.832;4.758;2023-03-03T03:01:40;5.40;;;1.20;;
11614;SDS011;5863;52.832;4.758;2023-03-03T03:04:09;4.60;;;1.30;;
11614;SDS011;5863;52.832;4.758;2023-03-03T03:06:37;4.37;;;1.10;;
11614;SDS011;5863;52.832;4.758;2023-03-03T03:09:04;1.07;;;0.80;;
11614;SDS011;5863;52.832;4.758;2023-03-03T03:11:31;2.63;;;0.90;;
11614;SDS011;5863;52.832;4.758;2023-03-03T03:13:59;1.70;;;1.13;;
11614;SDS011;5863;52.832;4.758;2023-03-03T03:16:26;5.37;;;0.87;;
11614;SDS011;5863;52.832;4.758;2023-03-03T03:18:53;3.87;;;1.37;;
11614;SDS011;5863;52.832;4.758;2023-03-03T03:21:20;4.23;;;1.17;;
11614;SDS011;5863;52.832;4.758;2023-03-03T03:23:47;4.60;;;0.93;;
11614;SDS011;5863;52.832;4.758;2023-03-03T03:26:14;1.10;;;1.00;;
11614;SDS011;5863;52.832;4.758;2023-03-03T03:28:40;0.70;;;0.70;;
11614;SDS011;5863;52.832;4.758;2023-03-03T03:31:07;5.60;;;1.10;;
11614;SDS011;5863;52.832;4.758;2023-03-03T03:33:34;2.97;;;1.47;;
11614;SDS011;5863;52.832;4.758;2023-03-03T03:36:03;6.23;;;1.40;;
11614;SDS011;5863;52.832;4.758;2023-03-03T03:38:31;2.07;;;0.83;;
11614;SDS011;5863;52.832;4.758;2023-03-03T03:41:00;5.20;;;1.20;;
11614;SDS011;5863;52.832;4.758;2023-03-03T03:43:27;2.97;;;1.30;;
11614;SDS011;5863;52.832;4.758;2023-03-03T03:45:54;2.90;;;1.10;;
11614;SDS011;5863;52.832;4.758;2023-03-03T03:48:21;2.00;;;1.30;;
11614;SDS011;5863;52.832;4.758;2023-03-03T03:50:48;3.03;;;1.50;;
11614;SDS011;5863;52.832;4.758;2023-03-03T03:53:16;3.20;;;1.40;;
11614;SDS011;5863;52.832;4.758;2023-03-03T03:55:43;5.60;;;1.30;;
11614;SDS011;5863;52.832;4.758;2023-03-03T03:58:11;2.73;;;1.47;;
11614;SDS011;5863;52.832;4.758;2023-03-03T04:00:39;3.80;;;1.23;;
11614;SDS011;5863;52.832;4.758;2023-03-03T04:03:07;4.50;;;1.63;;
11614;SDS011;5863;52.832;4.758;2023-03-03T04:05:34;5.23;;;1.50;;
11614;SDS011;5863;52.832;4.758;2023-03-03T04:08:01;3.27;;;1.47;;
11614;SDS011;5863;52.832;4.758;2023-03-03T04:10:30;3.53;;;1.40;;
11614;SDS011;5863;52.832;4.758;2023-03-03T04:12:57;4.83;;;1.30;;
11614;SDS011;5863;52.832;4.758;2023-03-03T04:15:24;6.97;;;1.67;;
11614;SDS011;5863;52.832;4.758;2023-03-03T04:17:51;5.37;;;1.93;;
11614;SDS011;5863;52.832;4.758;2023-03-03T04:20:17;3.03;;;1.20;;
11614;SDS011;5863;52.832;4.758;2023-03-03T04:22:44;2.17;;;1.00;;
11614;SDS011;5863;52.832;4.758;2023-03-03T04:25:11;2.97;;;1.33;;
11614;SDS011;5863;52.832;4.758;2023-03-03T04:27:42;4.43;;;1.20;;
11614;SDS011;5863;52.832;4.758;2023-03-03T04:30:09;5.13;;;1.30;;
11614;SDS011;5863;52.832;4.758;2023-03-03T04:32:37;4.03;;;1.20;;
11614;SDS011;5863;52.832;4.758;2023-03-03T04:35:04;3.00;;;1.20;;
11614;SDS011;5863;52.832;4.758;2023-03-03T04:37:31;1.77;;;0.93;;
11614;SDS011;5863;52.832;4.758;2023-03-03T04:40:00;5.10;;;1.30;;
11614;SDS011;5863;52.832;4.758;2023-03-03T04:42:26;3.20;;;1.10;;
11614;SDS011;5863;52.832;4.758;2023-03-03T04:44:55;3.67;;;1.20;;
11614;SDS011;5863;52.832;4.758;2023-03-03T04:47:22;4.03;;;1.30;;
11614;SDS011;5863;52.832;4.758;2023-03-03T04:52:18;3.70;;;1.10;;
11614;SDS011;5863;52.832;4.758;2023-03-03T04:54:45;3.87;;;1.20;;
11614;SDS011;5863;52.832;4.758;2023-03-03T04:57:11;5.97;;;1.40;;
11614;SDS011;5863;52.832;4.758;2023-03-03T04:59:38;4.67;;;1.40;;
11614;SDS011;5863;52.832;4.758;2023-03-03T05:02:08;1.90;;;1.17;;
11614;SDS011;5863;52.832;4.758;2023-03-03T05:04:37;2.97;;;1.30;;
11614;SDS011;5863;52.832;4.758;2023-03-03T05:07:07;3.93;;;1.27;;
11614;SDS011;5863;52.832;4.758;2023-03-03T05:09:34;3.10;;;1.20;;
11614;SDS011;5863;52.832;4.758;2023-03-03T05:12:01;5.93;;;1.30;;
11614;SDS011;5863;52.832;4.758;2023-03-03T05:14:28;3.90;;;1.63;;
11614;SDS011;5863;52.832;4.758;2023-03-03T05:16:55;2.90;;;1.20;;
11614;SDS011;5863;52.832;4.758;2023-03-03T05:19:23;3.00;;;1.50;;
11614;SDS011;5863;52.832;4.758;2023-03-03T05:21:50;2.30;;;0.93;;
11614;SDS011;5863;52.832;4.758;2023-03-03T05:24:17;3.13;;;1.17;;
11614;SDS011;5863;52.832;4.758;2023-03-03T05:26:43;1.53;;;1.10;;
11614;SDS011;5863;52.832;4.758;2023-03-03T05:29:12;2.20;;;1.23;;
11614;SDS011;5863;52.832;4.758;2023-03-03T05:31:39;4.30;;;1.23;;
11614;SDS011;5863;52.832;4.758;2023-03-03T05:34:05;10.87;;;1.50;;
11614;SDS011;5863;52.832;4.758;2023-03-03T05:36:33;4.70;;;1.40;;
11614;SDS011;5863;52.832;4.758;2023-03-03T05:39:00;2.93;;;1.40;;
11614;SDS011;5863;52.832;4.758;2023-03-03T05:41:27;2.43;;;1.13;;
11614;SDS011;5863;52.832;4.758;2023-03-03T05:43:54;8.13;;;1.30;;
11614;SDS011;5863;52.832;4.758;2023-03-03T05:46:20;2.77;;;1.17;;
11614;SDS011;5863;52.832;4.758;2023-03-03T05:48:48;3.17;;;1.20;;
11614;SDS011;5863;52.832;4.758;2023-03-03T05:51:15;1.20;;;1.10;;
11614;SDS011;5863;52.832;4.758;2023-03-03T05:53:43;5.50;;;1.60;;
11614;SDS011;5863;52.832;4.758;2023-03-03T05:56:09;3.10;;;1.23;;
11614;SDS011;5863;52.832;4.758;2023-03-03T05:58:36;2.23;;;1.20;;
11614;SDS011;5863;52.832;4.758;2023-03-03T06:01:03;3.93;;;1.37;;
11614;SDS011;5863;52.832;4.758;2023-03-03T06:03:31;2.30;;;1.20;;
11614;SDS011;5863;52.832;4.758;2023-03-03T06:05:57;4.37;;;1.30;;
11614;SDS011;5863;52.832;4.758;2023-03-03T06:08:25;1.90;;;1.07;;
11614;SDS011;5863;52.832;4.758;2023-03-03T06:10:54;1.57;;;1.30;;
11614;SDS011;5863;52.832;4.758;2023-03-03T06:13:21;3.00;;;1.50;;
11614;SDS011;5863;52.832;4.758;2023-03-03T06:15:48;4.70;;;1.50;;
11614;SDS011;5863;52.832;4.758;2023-03-03T06:18:17;2.43;;;1.40;;
11614;SDS011;5863;52.832;4.758;2023-03-03T06:20:44;2.97;;;1.50;;
11614;SDS011;5863;52.832;4.758;2023-03-03T06:23:16;3.17;;;1.20;;
11614;SDS011;5863;52.832;4.758;2023-03-03T06:25:43;1.70;;;1.23;;
11614;SDS011;5863;52.832;4.758;2023-03-03T06:28:11;2.03;;;1.40;;
11614;SDS011;5863;52.832;4.758;2023-03-03T06:30:38;2.00;;;1.10;;
11614;SDS011;5863;52.832;4.758;2023-03-03T06:33:06;4.60;;;1.40;;
11614;SDS011;5863;52.832;4.758;2023-03-03T06:35:33;5.03;;;1.40;;
11614;SDS011;5863;52.832;4.758;2023-03-03T06:38:00;3.80;;;1.30;;
11614;SDS011;5863;52.832;4.758;2023-03-03T06:40:28;5.77;;;1.23;;
11614;SDS011;5863;52.832;4.758;2023-03-03T06:42:55;1.67;;;1.30;;
11614;SDS011;5863;52.832;4.758;2023-03-03T06:45:23;3.93;;;1.30;;
11614;SDS011;5863;52.832;4.758;2023-03-03T06:47:49;2.47;;;1.20;;
11614;SDS011;5863;52.832;4.758;2023-03-03T06:50:17;5.47;;;1.37;;
11614;SDS011;5863;52.832;4.758;2023-03-03T06:52:45;4.13;;;1.33;;
11614;SDS011;5863;52.832;4.758;2023-03-03T06:55:14;7.37;;;1.40;;
11614;SDS011;5863;52.832;4.758;2023-03-03T06:57:46;3.33;;;1.30;;
11614;SDS011;5863;52.832;4.758;2023-03-03T07:00:14;2.43;;;1.50;;
11614;SDS011;5863;52.832;4.758;2023-03-03T07:02:45;2.87;;;1.23;;
11614;SDS011;5863;52.832;4.758;2023-03-03T07:05:13;3.50;;;1.23;;
11614;SDS011;5863;52.832;4.758;2023-03-03T07:07:45;4.30;;;1.40;;
11614;SDS011;5863;52.832;4.758;2023-03-03T07:10:15;2.33;;;1.43;;
11614;SDS011;5863;52.832;4.758;2023-03-03T07:12:47;3.33;;;1.40;;
11614;SDS011;5863;52.832;4.758;2023-03-03T07:15:15;3.13;;;1.43;;
11614;SDS011;5863;52.832;4.758;2023-03-03T07:17:46;1.67;;;1.23;;
11614;SDS011;5863;52.832;4.758;2023-03-03T07:20:17;5.97;;;1.70;;
11614;SDS011;5863;52.832;4.758;2023-03-03T07:22:46;3.03;;;1.40;;
11614;SDS011;5863;52.832;4.758;2023-03-03T07:25:18;4.77;;;1.37;;
11614;SDS011;5863;52.832;4.758;2023-03-03T07:27:48;4.43;;;1.07;;
11614;SDS011;5863;52.832;4.758;2023-03-03T07:30:23;4.00;;;1.70;;
11614;SDS011;5863;52.832;4.758;2023-03-03T07:32:56;2.43;;;1.43;;
11614;SDS011;5863;52.832;4.758;2023-03-03T07:38:16;2.87;;;1.50;;
11614;SDS011;5863;52.832;4.758;2023-03-03T07:40:56;5.10;;;1.40;;
11614;SDS011;5863;52.832;4.758;2023-03-03T07:43:33;4.93;;;1.30;;
11614;SDS011;5863;52.832;4.758;2023-03-03T07:48:52;2.90;;;1.30;;
11614;SDS011;5863;52.832;4.758;2023-03-03T07:51:22;3.50;;;1.57;;
11614;SDS011;5863;52.832;4.758;2023-03-03T07:53:52;3.40;;;1.63;;
11614;SDS011;5863;52.832;4.758;2023-03-03T07:56:27;4.07;;;2.27;;
11614;SDS011;5863;52.832;4.758;2023-03-03T07:58:59;2.33;;;1.40;;
11614;SDS011;5863;52.832;4.758;2023-03-03T08:01:36;8.07;;;2.22;;
11614;SDS011;5863;52.832;4.758;2023-03-03T08:06:50;3.75;;;2.50;;
11614;SDS011;5863;52.832;4.758;2023-03-03T08:15:20;4.05;;;2.85;;
11614;SDS011;5863;52.832;4.758;2023-03-03T08:17:48;3.78;;;2.63;;
11614;SDS011;5863;52.832;4.758;2023-03-03T08:20:37;2.40;;;2.20;;
11614;SDS011;5863;52.832;4.758;2023-03-03T08:23:09;3.78;;;1.92;;
11614;SDS011;5863;52.832;4.758;2023-03-03T08:25:36;2.38;;;1.48;;
11614;SDS011;5863;52.832;4.758;2023-03-03T08:28:03;1.90;;;1.52;;
11614;SDS011;5863;52.832;4.758;2023-03-03T08:30:30;4.95;;;1.20;;
11614;SDS011;5863;52.832;4.758;2023-03-03T08:32:59;2.15;;;0.85;;
11614;SDS011;5863;52.832;4.758;2023-03-03T08:35:26;2.97;;;1.40;;
11614;SDS011;5863;52.832;4.758;2023-03-03T08:37:54;3.05;;;1.27;;
11614;SDS011;5863;52.832;4.758;2023-03-03T08:40:21;2.45;;;0.98;;
11614;SDS011;5863;52.832;4.758;2023-03-03T08:42:47;2.40;;;1.05;;
11614;SDS011;5863;52.832;4.758;2023-03-03T08:45:14;2.80;;;0.80;;
11614;SDS011;5863;52.832;4.758;2023-03-03T08:47:41;2.20;;;0.77;;
11614;SDS011;5863;52.832;4.758;2023-03-03T08:50:08;3.92;;;0.88;;
11614;SDS011;5863;52.832;4.758;2023-03-03T08:52:35;2.35;;;0.57;;
11614;SDS011;5863;52.832;4.758;2023-03-03T08:55:03;2.30;;;1.00;;
11614;SDS011;5863;52.832;4.758;2023-03-03T08:57:30;1.98;;;0.80;;
11614;SDS011;5863;52.832;4.758;2023-03-03T08:59:57;1.27;;;0.80;;
11614;SDS011;5863;52.832;4.758;2023-03-03T09:02:24;4.45;;;0.98;;
11614;SDS011;5863;52.832;4.758;2023-03-03T09:04:50;1.75;;;0.90;;
11614;SDS011;5863;52.832;4.758;2023-03-03T09:07:17;1.70;;;0.85;;
11614;SDS011;5863;52.832;4.758;2023-03-03T09:09:44;1.90;;;0.68;;
11614;SDS011;5863;52.832;4.758;2023-03-03T09:12:15;1.23;;;0.70;;
11614;SDS011;5863;52.832;4.758;2023-03-03T09:14:43;4.35;;;0.93;;
11614;SDS011;5863;52.832;4.758;2023-03-03T09:17:18;1.88;;;0.70;;
11614;SDS011;5863;52.832;4.758;2023-03-03T09:19:49;0.85;;;0.63;;
11614;SDS011;5863;52.832;4.758;2023-03-03T09:22:17;2.08;;;0.90;;
11614;SDS011;5863;52.832;4.758;2023-03-03T09:24:46;1.33;;;0.60;;
11614;SDS011;5863;52.832;4.758;2023-03-03T09:27:17;1.30;;;0.70;;
11614;SDS011;5863;52.832;4.758;2023-03-03T09:29:48;7.65;;;0.80;;
11614;SDS011;5863;52.832;4.758;2023-03-03T09:32:20;1.42;;;0.90;;
11614;SDS011;5863;52.832;4.758;2023-03-03T09:34:55;4.07;;;1.15;;
11614;SDS011;5863;52.832;4.758;2023-03-03T09:37:22;1.88;;;0.60;;
11614;SDS011;5863;52.832;4.758;2023-03-03T09:39:52;1.27;;;0.75;;
11614;SDS011;5863;52.832;4.758;2023-03-03T09:48:21;2.90;;;0.80;;
11614;SDS011;5863;52.832;4.758;2023-03-03T09:51:01;2.70;;;0.75;;
11614;SDS011;5863;52.832;4.758;2023-03-03T09:53:51;1.90;;;0.77;;
11614;SDS011;5863;52.832;4.758;2023-03-03T09:56:28;2.53;;;0.80;;
11614;SDS011;5863;52.832;4.758;2023-03-03T09:59:03;3.13;;;0.60;;
11614;SDS011;5863;52.832;4.758;2023-03-03T10:01:53;1.25;;;0.90;;
11614;SDS011;5863;52.832;4.758;2023-03-03T10:07:38;3.65;;;0.70;;
11614;SDS011;5863;52.832;4.758;2023-03-03T10:10:19;2.88;;;1.00;;
11614;SDS011;5863;52.832;4.758;2023-03-03T10:13:00;1.52;;;0.70;;
11614;SDS011;5863;52.832;4.758;2023-03-03T10:15:45;1.25;;;0.85;;
11614;SDS011;5863;52.832;4.758;2023-03-03T10:18:22;3.67;;;0.80;;
11614;SDS011;5863;52.832;4.758;2023-03-03T10:21:00;1.80;;;1.00;;
11614;SDS011;5863;52.832;4.758;2023-03-03T10:23:48;2.25;;;0.63;;
11614;SDS011;5863;52.832;4.758;2023-03-03T10:26:23;4.90;;;0.60;;
11614;SDS011;5863;52.832;4.758;2023-03-03T10:29:12;2.93;;;0.90;;
11614;SDS011;5863;52.832;4.758;2023-03-03T10:31:50;1.40;;;0.75;;
11614;SDS011;5863;52.832;4.758;2023-03-03T10:34:28;2.10;;;0.90;;
11614;SDS011;5863;52.832;4.758;2023-03-03T10:37:11;6.50;;;0.93;;
11614;SDS011;5863;52.832;4.758;2023-03-03T10:39:49;3.20;;;0.80;;
11614;SDS011;5863;52.832;4.758;2023-03-03T10:42:33;4.57;;;0.80;;
11614;SDS011;5863;52.832;4.758;2023-03-03T10:48:13;2.73;;;0.90;;
11614;SDS011;5863;52.832;4.758;2023-03-03T10:50:53;4.50;;;1.08;;
11614;SDS011;5863;52.832;4.758;2023-03-03T10:53:28;0.77;;;0.50;;
11614;SDS011;5863;52.832;4.758;2023-03-03T10:56:04;2.47;;;0.77;;
11614;SDS011;5863;52.832;4.758;2023-03-03T10:58:49;3.37;;;0.87;;
11614;SDS011;5863;52.832;4.758;2023-03-03T11:01:25;2.23;;;0.80;;
11614;SDS011;5863;52.832;4.758;2023-03-03T11:04:07;2.63;;;0.80;;
11614;SDS011;5863;52.832;4.758;2023-03-03T11:06:54;3.77;;;0.90;;
11614;SDS011;5863;52.832;4.758;2023-03-03T11:09:30;3.10;;;0.70;;
11614;SDS011;5863;52.832;4.758;2023-03-03T11:12:07;3.10;;;0.90;;
11614;SDS011;5863;52.832;4.758;2023-03-03T11:14:49;3.42;;;0.68;;
11614;SDS011;5863;52.832;4.758;2023-03-03T11:17:24;3.15;;;0.82;;
11614;SDS011;5863;52.832;4.758;2023-03-03T11:20:03;3.13;;;0.80;;
11614;SDS011;5863;52.832;4.758;2023-03-03T11:22:50;1.53;;;0.80;;
11614;SDS011;5863;52.832;4.758;2023-03-03T11:25:25;4.53;;;0.93;;
11614;SDS011;5863;52.832;4.758;2023-03-03T11:31:04;1.45;;;0.70;;
11614;SDS011;5863;52.832;4.758;2023-03-03T11:33:39;3.45;;;0.90;;
11614;SDS011;5863;52.832;4.758;2023-03-03T11:36:18;2.17;;;0.83;;
11614;SDS011;5863;52.832;4.758;2023-03-03T11:38:50;1.67;;;0.88;;
11614;SDS011;5863;52.832;4.758;2023-03-03T11:41:32;4.35;;;1.20;;
11614;SDS011;5863;52.832;4.758;2023-03-03T11:44:04;2.15;;;0.80;;
11614;SDS011;5863;52.832;4.758;2023-03-03T11:46:42;2.57;;;0.80;;
11614;SDS011;5863;52.832;4.758;2023-03-03T11:49:13;1.98;;;0.80;;
11614;SDS011;5863;52.832;4.758;2023-03-03T11:51:49;3.20;;;0.80;;
11614;SDS011;5863;52.832;4.758;2023-03-03T11:54:23;2.95;;;0.70;;
11614;SDS011;5863;52.832;4.758;2023-03-03T11:56:56;4.35;;;1.10;;
11614;SDS011;5863;52.832;4.758;2023-03-03T11:59:43;0.65;;;0.55;;
11614;SDS011;5863;52.832;4.758;2023-03-03T12:02:20;1.90;;;0.73;;
11614;SDS011;5863;52.832;4.758;2023-03-03T12:04:54;2.63;;;0.93;;
11614;SDS011;5863;52.832;4.758;2023-03-03T12:07:29;2.45;;;0.70;;
11614;SDS011;5863;52.832;4.758;2023-03-03T12:10:06;2.78;;;0.80;;
11614;SDS011;5863;52.832;4.758;2023-03-03T12:12:42;5.18;;;0.95;;
11614;SDS011;5863;52.832;4.758;2023-03-03T12:15:14;3.92;;;1.17;;
11614;SDS011;5863;52.832;4.758;2023-03-03T12:17:51;3.08;;;1.08;;
11614;SDS011;5863;52.832;4.758;2023-03-03T12:20:30;1.80;;;0.73;;
11614;SDS011;5863;52.832;4.758;2023-03-03T12:23:09;3.08;;;0.75;;
11614;SDS011;5863;52.832;4.758;2023-03-03T12:25:46;1.45;;;0.80;;
11614;SDS011;5863;52.832;4.758;2023-03-03T12:28:15;2.45;;;0.70;;
11614;SDS011;5863;52.832;4.758;2023-03-03T12:30:58;3.42;;;1.02;;
11614;SDS011;5863;52.832;4.758;2023-03-03T12:33:41;1.85;;;0.90;;
11614;SDS011;5863;52.832;4.758;2023-03-03T12:36:20;4.93;;;1.10;;
11614;SDS011;5863;52.832;4.758;2023-03-03T12:39:01;6.13;;;1.50;;
11614;SDS011;5863;52.832;4.758;2023-03-03T12:41:36;5.40;;;1.35;;
11614;SDS011;5863;52.832;4.758;2023-03-03T12:44:13;3.20;;;1.15;;
11614;SDS011;5863;52.832;4.758;2023-03-03T12:46:44;6.28;;;1.35;;
11614;SDS011;5863;52.832;4.758;2023-03-03T12:49:18;5.38;;;1.25;;
11614;SDS011;5863;52.832;4.758;2023-03-03T12:51:47;9.35;;;1.50;;
11614;SDS011;5863;52.832;4.758;2023-03-03T12:57:30;6.13;;;1.27;;
11614;SDS011;5863;52.832;4.758;2023-03-03T13:00:13;6.72;;;1.33;;
11614;SDS011;5863;52.832;4.758;2023-03-03T13:02:51;5.15;;;1.52;;
11614;SDS011;5863;52.832;4.758;2023-03-03T13:05:28;4.93;;;1.13;;
11614;SDS011;5863;52.832;4.758;2023-03-03T13:08:14;4.65;;;1.35;;
11614;SDS011;5863;52.832;4.758;2023-03-03T13:10:55;3.92;;;1.50;;
11614;SDS011;5863;52.832;4.758;2023-03-03T13:13:30;4.60;;;1.20;;
11614;SDS011;5863;52.832;4.758;2023-03-03T13:16:08;11.60;;;1.80;;
11614;SDS011;5863;52.832;4.758;2023-03-03T13:18:41;6.75;;;1.33;;
11614;SDS011;5863;52.832;4.758;2023-03-03T13:21:15;5.55;;;1.30;;
11614;SDS011;5863;52.832;4.758;2023-03-03T13:23:50;6.15;;;2.05;;
11614;SDS011;5863;52.832;4.758;2023-03-03T13:26:24;9.32;;;2.83;;
11614;SDS011;5863;52.832;4.758;2023-03-03T13:28:55;12.70;;;2.55;;
11614;SDS011;5863;52.832;4.758;2023-03-03T13:31:30;10.20;;;2.08;;
11614;SDS011;5863;52.832;4.758;2023-03-03T13:33:59;9.82;;;1.95;;
11614;SDS011;5863;52.832;4.758;2023-03-03T13:36:28;6.88;;;1.83;;
11614;SDS011;5863;52.832;4.758;2023-03-03T13:39:00;7.05;;;1.70;;
11614;SDS011;5863;52.832;4.758;2023-03-03T13:41:36;4.05;;;1.92;;
11614;SDS011;5863;52.832;4.758;2023-03-03T13:44:10;6.93;;;2.00;;
11614;SDS011;5863;52.832;4.758;2023-03-03T13:46:42;10.18;;;2.75;;
11614;SDS011;5863;52.832;4.758;2023-03-03T13:49:24;12.35;;;2.47;;
11614;SDS011;5863;52.832;4.758;2023-03-03T13:52:09;11.23;;;2.58;;
11614;SDS011;5863;52.832;4.758;2023-03-03T13:57:39;11.55;;;2.47;;
11614;SDS011;5863;52.832;4.758;2023-03-03T14:00:15;10.40;;;2.20;;
11614;SDS011;5863;52.832;4.758;2023-03-03T14:05:43;20.13;;;3.60;;
11614;SDS011;5863;52.832;4.758;2023-03-03T14:08:13;16.13;;;3.40;;
11614;SDS011;5863;52.832;4.758;2023-03-03T14:10:46;11.80;;;2.50;;
11614;SDS011;5863;52.832;4.758;2023-03-03T14:13:22;11.07;;;2.67;;
11614;SDS011;5863;52.832;4.758;2023-03-03T14:15:55;9.85;;;2.75;;
11614;SDS011;5863;52.832;4.758;2023-03-03T14:18:29;13.70;;;2.70;;
11614;SDS011;5863;52.832;4.758;2023-03-03T14:21:02;13.70;;;2.25;;
11614;SDS011;5863;52.832;4.758;2023-03-03T14:23:41;9.60;;;2.15;;
11614;SDS011;5863;52.832;4.758;2023-03-03T14:26:15;12.50;;;2.45;;
11614;SDS011;5863;52.832;4.758;2023-03-03T14:28:43;13.27;;;3.03;;
11614;SDS011;5863;52.832;4.758;2023-03-03T14:31:16;10.85;;;2.50;;
11614;SDS011;5863;52.832;4.758;2023-03-03T14:33:55;14.88;;;2.38;;
11614;SDS011;5863;52.832;4.758;2023-03-03T14:36:25;13.90;;;2.95;;
11614;SDS011;5863;52.832;4.758;2023-03-03T14:38:54;11.73;;;2.88;;
11614;SDS011;5863;52.832;4.758;2023-03-03T14:41:22;14.05;;;3.03;;
11614;SDS011;5863;52.832;4.758;2023-03-03T14:44:19;11.60;;;2.30;;
11614;SDS011;5863;52.832;4.758;2023-03-03T14:47:00;11.13;;;2.10;;
11614;SDS011;5863;52.832;4.758;2023-03-03T14:49:34;10.82;;;2.28;;
11614;SDS011;5863;52.832;4.758;2023-03-03T14:52:04;16.95;;;2.60;;
11614;SDS011;5863;52.832;4.758;2023-03-03T14:54:48;12.32;;;2.20;;
11614;SDS011;5863;52.832;4.758;2023-03-03T14:57:16;14.85;;;2.42;;
11614;SDS011;5863;52.832;4.758;2023-03-03T14:59:56;16.30;;;2.55;;
11614;SDS011;5863;52.832;4.758;2023-03-03T15:02:32;10.35;;;2.53;;
11614;SDS011;5863;52.832;4.758;2023-03-03T15:05:18;9.68;;;2.22;;
11614;SDS011;5863;52.832;4.758;2023-03-03T15:07:48;10.30;;;2.50;;
11614;SDS011;5863;52.832;4.758;2023-03-03T15:10:32;11.43;;;2.38;;
11614;SDS011;5863;52.832;4.758;2023-03-03T15:13:23;13.67;;;2.70;;
11614;SDS011;5863;52.832;4.758;2023-03-03T15:16:02;13.23;;;3.05;;
11614;SDS011;5863;52.832;4.758;2023-03-03T15:18:34;15.02;;;2.70;;
11614;SDS011;5863;52.832;4.758;2023-03-03T15:21:20;14.23;;;2.80;;
11614;SDS011;5863;52.832;4.758;2023-03-03T15:23:52;14.90;;;2.50;;
11614;SDS011;5863;52.832;4.758;2023-03-03T15:26:26;13.73;;;2.90;;
11614;SDS011;5863;52.832;4.758;2023-03-03T15:29:02;15.23;;;2.73;;
11614;SDS011;5863;52.832;4.758;2023-03-03T15:31:38;10.73;;;2.40;;
11614;SDS011;5863;52.832;4.758;2023-03-03T15:34:20;10.98;;;3.10;;
11614;SDS011;5863;52.832;4.758;2023-03-03T15:36:54;10.90;;;3.25;;
11614;SDS011;5863;52.832;4.758;2023-03-03T15:39:28;16.80;;;3.05;;
11614;SDS011;5863;52.832;4.758;2023-03-03T15:42:17;11.50;;;2.55;;
11614;SDS011;5863;52.832;4.758;2023-03-03T15:44:53;9.68;;;2.33;;
11614;SDS011;5863;52.832;4.758;2023-03-03T15:47:36;14.20;;;3.03;;
11614;SDS011;5863;52.832;4.758;2023-03-03T15:53:20;12.35;;;2.65;;
11614;SDS011;5863;52.832;4.758;2023-03-03T15:56:03;12.13;;;2.90;;
11614;SDS011;5863;52.832;4.758;2023-03-03T15:58:53;13.57;;;2.47;;
11614;SDS011;5863;52.832;4.758;2023-03-03T16:01:39;14.45;;;2.92;;
11614;SDS011;5863;52.832;4.758;2023-03-03T16:04:11;10.90;;;2.80;;
11614;SDS011;5863;52.832;4.758;2023-03-03T16:06:44;11.43;;;2.40;;
11614;SDS011;5863;52.832;4.758;2023-03-03T16:09:27;17.38;;;3.10;;
11614;SDS011;5863;52.832;4.758;2023-03-03T16:12:07;17.33;;;3.37;;
11614;SDS011;5863;52.832;4.758;2023-03-03T16:14:46;14.60;;;3.23;;
11614;SDS011;5863;52.832;4.758;2023-03-03T16:17:24;11.95;;;2.85;;
11614;SDS011;5863;52.832;4.758;2023-03-03T16:20:01;12.43;;;2.30;;